createdAt,value
2023-04-26T00:02:22.293Z,97344.94
2023-04-26T00:06:39.926Z,97347.72
2023-04-26T00:10:57.782Z,97345.88
2023-04-26T00:15:15.589Z,97344.81
2023-04-26T00:19:33.453Z,97344.41
2023-04-26T00:23:52.112Z,97343.16
2023-04-26T00:28:09.679Z,97343.03
2023-04-26T00:32:27.587Z,97362.09
2023-04-26T00:36:45.201Z,97355.75
2023-04-26T00:41:03.026Z,97355.53
2023-04-26T00:45:20.814Z,97357.09
2023-04-26T00:49:38.572Z,97360.03
2023-04-26T00:53:57.605Z,97356.88
2023-04-26T00:58:15.494Z,97367.63
2023-04-26T01:02:33.464Z,97368.00
2023-04-26T01:06:51.518Z,97369.94
2023-04-26T01:11:09.037Z,97369.56
2023-04-26T01:15:28.707Z,97368.09
2023-04-26T01:19:49.992Z,97369.72
2023-04-26T01:24:08.527Z,97374.03
2023-04-26T01:28:26.022Z,97372.69
2023-04-26T01:32:44.019Z,97384.19
2023-04-26T01:37:01.924Z,97380.28
2023-04-26T01:41:19.554Z,97376.28
2023-04-26T01:45:37.066Z,97385.19
2023-04-26T01:49:54.289Z,97386.28
2023-04-26T01:54:12.150Z,97392.44
2023-04-26T01:58:30.557Z,97397.50
2023-04-26T02:02:48.576Z,97399.38
2023-04-26T02:07:06.764Z,97405.88
2023-04-26T02:11:24.982Z,97401.84
2023-04-26T02:15:47.404Z,97413.16
2023-04-26T02:20:05.503Z,97415.78
2023-04-26T02:24:23.489Z,97407.72
2023-04-26T02:28:42.244Z,97412.38
2023-04-26T02:33:00.002Z,97403.38
2023-04-26T02:37:17.727Z,97413.69
2023-04-26T02:41:35.650Z,97417.28
2023-04-26T02:45:53.524Z,97410.19
2023-04-26T02:50:11.552Z,97415.16
2023-04-26T02:54:29.186Z,97416.97
2023-04-26T02:58:47.479Z,97413.75
2023-04-26T03:03:05.286Z,97418.50
2023-04-26T03:07:23.342Z,97422.59
2023-04-26T03:11:40.866Z,97425.69
2023-04-26T03:15:58.634Z,97422.75
2023-04-26T03:20:16.241Z,97430.63
2023-04-26T03:24:34.285Z,97429.06
2023-04-26T03:28:52.073Z,97436.88
2023-04-26T03:33:10.590Z,97438.69
2023-04-26T03:37:28.136Z,97444.69
2023-04-26T03:41:46.572Z,97442.88
2023-04-26T03:46:05.157Z,97449.97
2023-04-26T03:50:23.181Z,97450.63
2023-04-26T03:54:40.865Z,97456.13
2023-04-26T03:58:58.562Z,97470.34
2023-04-26T04:03:16.401Z,97473.75
2023-04-26T04:07:35.037Z,97492.44
2023-04-26T04:11:52.645Z,97496.13
2023-04-26T04:16:10.719Z,97502.78
2023-04-26T04:20:28.223Z,97510.66
2023-04-26T04:24:45.932Z,97519.03
2023-04-26T04:29:09.438Z,97519.09
2023-04-26T04:33:28.848Z,97521.78
2023-04-26T04:37:46.617Z,97520.00
2023-04-26T04:42:04.291Z,97529.00
2023-04-26T04:46:22.201Z,97538.91
2023-04-26T04:50:40.131Z,97536.22
2023-04-26T04:54:57.792Z,97533.47
2023-04-26T04:59:15.454Z,97544.53
2023-04-26T05:03:34.591Z,97542.78
2023-04-26T05:07:52.237Z,97543.22
2023-04-26T05:12:10.332Z,97546.97
2023-04-26T05:16:28.019Z,97544.13
2023-04-26T05:20:46.006Z,97548.69
2023-04-26T05:25:05.653Z,97550.44
2023-04-26T05:29:23.375Z,97543.19
2023-04-26T05:33:41.402Z,97555.66
2023-04-26T05:37:59.077Z,97556.44
2023-04-26T05:42:18.023Z,97557.81
2023-04-26T05:46:36.017Z,97574.03
2023-04-26T05:50:53.880Z,97558.38
2023-04-26T05:55:11.691Z,97568.50
2023-04-26T05:59:33.055Z,97559.72
2023-04-26T06:03:51.868Z,97561.25
2023-04-26T06:08:11.490Z,97572.63
2023-04-26T06:12:29.474Z,97571.13
2023-04-26T06:16:47.410Z,97562.88
2023-04-26T06:21:06.375Z,97580.03
2023-04-26T06:25:23.932Z,97573.56
2023-04-26T06:29:42.108Z,97575.28
2023-04-26T06:33:59.627Z,97571.75
2023-04-26T06:38:17.421Z,97578.94
2023-04-26T06:42:35.158Z,97576.72
2023-04-26T06:46:56.328Z,97573.09
2023-04-26T06:51:14.293Z,97578.53
2023-04-26T06:55:32.571Z,97573.41
2023-04-26T06:59:51.770Z,97573.81
2023-04-26T07:04:10.915Z,97588.69
2023-04-26T07:08:28.741Z,97597.53
2023-04-26T07:12:46.646Z,97590.94
2023-04-26T07:17:04.147Z,97615.31
2023-04-26T07:21:21.714Z,97607.72
2023-04-26T07:25:40.366Z,97633.00
2023-04-26T07:29:57.910Z,97627.06
2023-04-26T07:34:15.847Z,97615.09
2023-04-26T07:38:33.340Z,97631.84
2023-04-26T07:42:51.142Z,97627.84
2023-04-26T07:47:14.580Z,97627.00
2023-04-26T07:51:32.561Z,97643.88
2023-04-26T07:55:52.961Z,97633.88
2023-04-26T08:00:12.665Z,97647.28
2023-04-26T08:04:34.327Z,97652.28
2023-04-26T08:08:54.068Z,97630.69
2023-04-26T08:13:11.649Z,97648.38
2023-04-26T08:17:28.832Z,97619.47
2023-04-26T08:21:46.430Z,97650.69
2023-04-26T08:26:04.617Z,97646.19
2023-04-26T08:30:22.882Z,97628.56
2023-04-26T08:34:40.553Z,97657.41
2023-04-26T08:38:58.431Z,97646.19
2023-04-26T08:43:19.615Z,97658.22
2023-04-26T08:47:45.327Z,97646.25
2023-04-26T08:52:04.877Z,97639.09
2023-04-26T08:56:24.769Z,97647.66
2023-04-26T09:00:48.715Z,97661.69
2023-04-26T09:05:08.016Z,97644.06
2023-04-26T09:09:29.679Z,97632.94
2023-04-26T09:13:47.601Z,97662.88
2023-04-26T09:18:18.797Z,97668.41
2023-04-26T09:22:38.011Z,97649.00
2023-04-26T09:27:05.266Z,97662.94
2023-04-26T09:31:50.546Z,97686.25
2023-04-26T09:36:14.085Z,97673.88
2023-04-26T09:40:34.782Z,97665.28
2023-04-26T09:44:54.087Z,97675.69
2023-04-26T09:49:11.762Z,97693.88
2023-04-26T09:53:38.196Z,97701.19
2023-04-26T09:58:00.665Z,97687.19
2023-04-26T10:02:22.943Z,97685.22
2023-04-26T10:06:41.026Z,97720.03
2023-04-26T10:11:00.142Z,97644.50
2023-04-26T10:15:19.050Z,97634.72
2023-04-26T10:19:44.282Z,97639.97
2023-04-26T10:24:01.963Z,97669.41
2023-04-26T10:28:45.473Z,97691.84
2023-04-26T10:33:08.594Z,97684.69
2023-04-26T10:37:26.823Z,97677.34
2023-04-26T10:41:44.368Z,97663.19
2023-04-26T10:46:43.006Z,97690.91
2023-04-26T10:51:08.687Z,97736.28
2023-04-26T10:55:43.187Z,97722.50
2023-04-26T11:00:17.182Z,97703.16
2023-04-26T11:04:55.274Z,97715.06
2023-04-26T11:09:42.085Z,97669.16
2023-04-26T11:14:02.366Z,97677.28
2023-04-26T11:18:22.465Z,97706.16
2023-04-26T11:22:42.037Z,97709.59
2023-04-26T11:27:00.135Z,97710.41
2023-04-26T11:31:19.117Z,97694.53
2023-04-26T11:35:37.263Z,97665.09
2023-04-26T11:39:54.951Z,97685.41
2023-04-26T11:44:13.106Z,97741.16
2023-04-26T11:48:32.259Z,97825.84
2023-04-26T11:52:50.012Z,97775.09
2023-04-26T11:57:17.170Z,97801.91
2023-04-26T12:01:36.475Z,97787.00
2023-04-26T12:05:57.197Z,97736.00
2023-04-26T12:10:20.394Z,97731.06
2023-04-26T12:14:40.074Z,97846.06
2023-04-26T12:18:59.626Z,97724.91
2023-04-26T12:23:18.319Z,97687.31
2023-04-26T12:27:36.489Z,97689.06
2023-04-26T12:31:53.569Z,97703.53
2023-04-26T12:36:13.040Z,97695.81
2023-04-26T12:40:31.350Z,97706.25
2023-04-26T12:44:49.154Z,97739.91
2023-04-26T12:49:07.033Z,97857.38
2023-04-26T12:53:24.169Z,97851.06
2023-04-26T12:57:45.067Z,97831.34
2023-04-26T13:02:03.929Z,97866.06
2023-04-26T13:06:21.825Z,97805.44
2023-04-26T13:10:39.528Z,97891.97
2023-04-26T13:14:57.182Z,97745.97
2023-04-26T13:19:14.976Z,97764.72
2023-04-26T13:23:32.566Z,97713.75
2023-04-26T13:27:52.156Z,97721.66
2023-04-26T13:32:09.689Z,98195.97
2023-04-26T13:36:28.341Z,97940.97
2023-04-26T13:40:46.724Z,97731.66
2023-04-26T13:45:09.504Z,97718.00
2023-04-26T13:49:27.584Z,97725.53
2023-04-26T13:53:45.433Z,97734.59
2023-04-26T13:58:02.982Z,97737.66
2023-04-26T14:02:22.041Z,97760.59
2023-04-26T14:06:40.115Z,97780.69
2023-04-26T14:10:57.866Z,97775.06
2023-04-26T14:15:15.645Z,97983.97
2023-04-26T14:19:33.207Z,97842.03
2023-04-26T14:23:52.527Z,97767.88
2023-04-26T14:28:10.139Z,97755.16
2023-04-26T14:32:27.799Z,97802.66
2023-04-26T14:36:45.476Z,97780.75
2023-04-26T14:41:03.412Z,97856.09
2023-04-26T14:45:23.696Z,97941.56
2023-04-26T14:49:45.534Z,97834.53
2023-04-26T14:54:03.176Z,97844.53
2023-04-26T14:58:22.271Z,97805.66
2023-04-26T15:02:40.191Z,97802.66
2023-04-26T15:06:58.151Z,97843.06
2023-04-26T15:11:15.905Z,97784.81
2023-04-26T15:15:34.302Z,97768.75
2023-04-26T15:19:51.951Z,97761.25
2023-04-26T15:24:09.647Z,97769.22
2023-04-26T15:28:27.467Z,97774.75
2023-04-26T15:32:50.232Z,97768.38
2023-04-26T15:37:08.044Z,97774.06
2023-04-26T15:41:26.334Z,97783.59
2023-04-26T15:45:47.267Z,97784.84
2023-04-26T15:50:05.949Z,97785.41
2023-04-26T15:54:25.224Z,97788.47
2023-04-26T15:58:47.279Z,97802.50
2023-04-26T16:03:05.258Z,97817.47
2023-04-26T16:07:22.793Z,97817.41
2023-04-26T16:11:40.948Z,97821.50
2023-04-26T16:16:00.656Z,97817.66
2023-04-26T16:20:18.392Z,97813.41
2023-04-26T16:24:36.082Z,97808.94
2023-04-26T16:29:01.898Z,97818.16
2023-04-26T16:33:22.068Z,97828.50
2023-04-26T16:37:42.152Z,97826.13
2023-04-26T16:41:59.825Z,97824.75
2023-04-26T16:46:17.541Z,97812.53
2023-04-26T16:50:35.795Z,97813.81
2023-04-26T16:54:56.134Z,97828.00
2023-04-26T16:59:14.055Z,97837.75
2023-04-26T17:03:32.176Z,97844.53
2023-04-26T17:07:50.121Z,97836.81
2023-04-26T17:12:08.404Z,97838.75
2023-04-26T17:16:26.301Z,97851.22
2023-04-26T17:20:44.136Z,97846.78
2023-04-26T17:25:01.707Z,97847.25
2023-04-26T17:29:22.685Z,97857.56
2023-04-26T17:33:40.400Z,97850.34
2023-04-26T17:37:57.951Z,97844.53
2023-04-26T17:42:15.792Z,97852.94
2023-04-26T17:46:33.527Z,97865.47
2023-04-26T17:50:53.140Z,97860.75
2023-04-26T17:55:11.054Z,97870.13
2023-04-26T17:59:31.351Z,97865.63
2023-04-26T18:03:49.785Z,97881.56
2023-04-26T18:08:07.645Z,97881.56
2023-04-26T18:12:25.709Z,97881.00
2023-04-26T18:16:43.668Z,97889.91
2023-04-26T18:21:01.673Z,97887.66
2023-04-26T18:25:22.746Z,97885.63
2023-04-26T18:29:41.050Z,97890.16
2023-04-26T18:33:58.753Z,97898.19
2023-04-26T18:38:17.319Z,97905.22
2023-04-26T18:42:34.960Z,97905.00
2023-04-26T18:46:55.994Z,97912.00
2023-04-26T18:51:13.980Z,97912.91
2023-04-26T18:55:31.783Z,97928.13
2023-04-26T18:59:49.747Z,97928.63
2023-04-26T19:04:09.287Z,97932.31
2023-04-26T19:08:27.080Z,97934.34
2023-04-26T19:12:45.073Z,97940.16
2023-04-26T19:17:02.868Z,97941.13
2023-04-26T19:21:20.411Z,97938.28
2023-04-26T19:25:38.336Z,97935.88
2023-04-26T19:29:55.894Z,97946.41
2023-04-26T19:34:13.981Z,97941.00
2023-04-26T19:38:31.733Z,97946.44
2023-04-26T19:42:49.668Z,97945.72
2023-04-26T19:47:07.406Z,97949.72
2023-04-26T19:51:26.034Z,97946.16
2023-04-26T19:55:43.696Z,97949.75
2023-04-26T20:00:01.385Z,97954.88
2023-04-26T20:04:22.079Z,97964.00
2023-04-26T20:08:42.555Z,97969.94
2023-04-26T20:13:01.152Z,97965.63
2023-04-26T20:17:18.659Z,97967.06
2023-04-26T20:21:39.054Z,97963.34
2023-04-26T20:25:56.896Z,97973.56
2023-04-26T20:30:17.423Z,97976.22
2023-04-26T20:34:35.150Z,97985.00
2023-04-26T20:38:53.129Z,97969.28
2023-04-26T20:43:15.141Z,97974.59
2023-04-26T20:47:33.332Z,97977.47
2023-04-26T20:51:53.751Z,97974.03
2023-04-26T20:56:11.488Z,97975.19
2023-04-26T21:00:29.554Z,97985.03
2023-04-26T21:04:47.381Z,97980.06
2023-04-26T21:09:07.885Z,97981.66
2023-04-26T21:13:25.712Z,97985.03
2023-04-26T21:17:43.412Z,97985.28
2023-04-26T21:22:04.144Z,97994.09
2023-04-26T21:26:21.718Z,97991.03
2023-04-26T21:30:39.677Z,98001.25
2023-04-26T21:34:57.436Z,97998.34
2023-04-26T21:39:15.132Z,98002.19
2023-04-26T21:43:35.935Z,98004.78
2023-04-26T21:47:54.235Z,98009.81
2023-04-26T21:52:11.886Z,98009.03
2023-04-26T21:56:30.054Z,98019.53
2023-04-26T22:00:48.140Z,98014.75
2023-04-26T22:05:07.292Z,98019.53
2023-04-26T22:09:24.964Z,98025.13
2023-04-26T22:13:42.636Z,98031.84
2023-04-26T22:18:00.432Z,98029.56
2023-04-26T22:22:18.119Z,98030.47
2023-04-26T22:26:36.496Z,98034.75
2023-04-26T22:30:53.945Z,98034.88
2023-04-26T22:35:12.111Z,98041.59
2023-04-26T22:39:29.629Z,98046.22
2023-04-26T22:43:47.448Z,98049.47
2023-04-26T22:48:05.073Z,98049.81
2023-04-26T22:52:31.651Z,98052.44
2023-04-26T22:56:49.542Z,98057.53
2023-04-26T23:01:07.771Z,98070.75
2023-04-26T23:05:25.463Z,98067.19
2023-04-26T23:09:43.494Z,98066.72
2023-04-26T23:14:02.186Z,98064.19
2023-04-26T23:18:20.250Z,98070.94
2023-04-26T23:22:42.865Z,98065.34
2023-04-26T23:27:00.430Z,98063.53
2023-04-26T23:31:18.314Z,98067.28
2023-04-26T23:35:41.538Z,98070.34
2023-04-26T23:39:59.255Z,98069.03
2023-04-26T23:44:17.132Z,98074.50
2023-04-26T23:48:34.985Z,98081.28
2023-04-26T23:52:52.625Z,98072.56
2023-04-26T23:57:10.577Z,98074.50
